sensor_id;sensor_type;location;lat;lon;timestamp;temperature;humidity
13898;DHT22;7019;50.766;4.474;2023-06-22T00:01:20;20.60;99.90
13898;DHT22;7019;50.766;4.474;2023-06-22T00:03:48;20.70;99.90
13898;DHT22;7019;50.766;4.474;2023-06-22T00:06:15;20.60;99.90
13898;DHT22;7019;50.766;4.474;2023-06-22T00:08:42;20.60;99.90
13898;DHT22;7019;50.766;4.474;2023-06-22T00:11:09;20.50;99.90
13898;DHT22;7019;50.766;4.474;2023-06-22T00:13:37;20.50;99.90
13898;DHT22;7019;50.766;4.474;2023-06-22T00:16:05;20.50;99.90
13898;DHT22;7019;50.766;4.474;2023-06-22T00:18:32;20.50;99.90
13898;DHT22;7019;50.766;4.474;2023-06-22T00:20:59;20.50;99.90
13898;DHT22;7019;50.766;4.474;2023-06-22T00:23:26;20.40;99.90
13898;DHT22;7019;50.766;4.474;2023-06-22T00:25:53;20.40;99.90
13898;DHT22;7019;50.766;4.474;2023-06-22T00:28:21;20.40;99.90
13898;DHT22;7019;50.766;4.474;2023-06-22T00:30:49;20.30;99.90
13898;DHT22;7019;50.766;4.474;2023-06-22T00:33:17;20.20;99.90
13898;DHT22;7019;50.766;4.474;2023-06-22T00:35:44;20.10;99.90
13898;DHT22;7019;50.766;4.474;2023-06-22T00:38:11;20.20;99.90
13898;DHT22;7019;50.766;4.474;2023-06-22T00:40:38;20.20;99.90
13898;DHT22;7019;50.766;4.474;2023-06-22T00:43:06;20.20;99.90
13898;DHT22;7019;50.766;4.474;2023-06-22T00:45:33;20.20;99.90
13898;DHT22;7019;50.766;4.474;2023-06-22T00:48:02;20.30;99.90
13898;DHT22;7019;50.766;4.474;2023-06-22T00:50:32;20.30;99.90
13898;DHT22;7019;50.766;4.474;2023-06-22T00:53:03;20.40;99.90
13898;DHT22;7019;50.766;4.474;2023-06-22T00:55:33;20.40;99.90
13898;DHT22;7019;50.766;4.474;2023-06-22T00:58:03;20.40;99.90
13898;DHT22;7019;50.766;4.474;2023-06-22T01:00:33;20.40;99.90
13898;DHT22;7019;50.766;4.474;2023-06-22T01:03:02;20.40;99.90
13898;DHT22;7019;50.766;4.474;2023-06-22T01:05:34;20.40;99.90
13898;DHT22;7019;50.766;4.474;2023-06-22T01:08:08;20.40;99.90
13898;DHT22;7019;50.766;4.474;2023-06-22T01:10:43;20.40;99.90
13898;DHT22;7019;50.766;4.474;2023-06-22T01:13:22;20.40;99.90
13898;DHT22;7019;50.766;4.474;2023-06-22T01:15:57;20.40;99.90
13898;DHT22;7019;50.766;4.474;2023-06-22T01:18:30;20.30;99.90
13898;DHT22;7019;50.766;4.474;2023-06-22T01:20:57;20.30;99.90
13898;DHT22;7019;50.766;4.474;2023-06-22T01:23:36;20.30;99.90
13898;DHT22;7019;50.766;4.474;2023-06-22T01:26:16;20.20;99.90
13898;DHT22;7019;50.766;4.474;2023-06-22T01:28:48;20.20;99.90
13898;DHT22;7019;50.766;4.474;2023-06-22T01:31:18;20.10;99.90
13898;DHT22;7019;50.766;4.474;2023-06-22T01:33:49;20.00;99.90
13898;DHT22;7019;50.766;4.474;2023-06-22T01:36:17;20.00;99.90
13898;DHT22;7019;50.766;4.474;2023-06-22T01:38:45;19.90;99.90
13898;DHT22;7019;50.766;4.474;2023-06-22T01:41:13;19.80;99.90
13898;DHT22;7019;50.766;4.474;2023-06-22T01:43:40;19.80;99.90
13898;DHT22;7019;50.766;4.474;2023-06-22T01:46:10;19.70;99.90
13898;DHT22;7019;50.766;4.474;2023-06-22T01:48:38;19.60;99.90
13898;DHT22;7019;50.766;4.474;2023-06-22T01:51:06;19.60;99.90
13898;DHT22;7019;50.766;4.474;2023-06-22T01:53:33;19.60;99.90
13898;DHT22;7019;50.766;4.474;2023-06-22T01:56:00;19.60;99.90
13898;DHT22;7019;50.766;4.474;2023-06-22T01:58:28;19.50;99.90
13898;DHT22;7019;50.766;4.474;2023-06-22T02:00:58;19.50;99.90
13898;DHT22;7019;50.766;4.474;2023-06-22T02:03:34;19.50;99.90
13898;DHT22;7019;50.766;4.474;2023-06-22T02:06:05;19.40;99.90
13898;DHT22;7019;50.766;4.474;2023-06-22T02:08:38;19.50;99.90
13898;DHT22;7019;50.766;4.474;2023-06-22T02:11:08;19.40;99.90
13898;DHT22;7019;50.766;4.474;2023-06-22T02:13:37;19.30;99.90
13898;DHT22;7019;50.766;4.474;2023-06-22T02:16:08;19.20;99.90
13898;DHT22;7019;50.766;4.474;2023-06-22T02:18:37;19.10;99.90
13898;DHT22;7019;50.766;4.474;2023-06-22T02:21:06;19.10;99.90
13898;DHT22;7019;50.766;4.474;2023-06-22T02:23:33;19.10;99.90
13898;DHT22;7019;50.766;4.474;2023-06-22T02:26:01;19.10;99.90
13898;DHT22;7019;50.766;4.474;2023-06-22T02:28:29;19.00;99.90
13898;DHT22;7019;50.766;4.474;2023-06-22T02:30:56;19.00;99.90
13898;DHT22;7019;50.766;4.474;2023-06-22T02:33:23;18.80;99.90
13898;DHT22;7019;50.766;4.474;2023-06-22T02:35:51;18.70;99.90
13898;DHT22;7019;50.766;4.474;2023-06-22T02:38:19;18.70;99.90
13898;DHT22;7019;50.766;4.474;2023-06-22T02:40:46;18.60;99.90
13898;DHT22;7019;50.766;4.474;2023-06-22T02:43:13;18.60;99.90
13898;DHT22;7019;50.766;4.474;2023-06-22T02:45:40;18.60;99.90
13898;DHT22;7019;50.766;4.474;2023-06-22T02:48:07;18.50;99.90
13898;DHT22;7019;50.766;4.474;2023-06-22T02:50:34;18.50;99.90
13898;DHT22;7019;50.766;4.474;2023-06-22T02:53:02;18.40;99.90
13898;DHT22;7019;50.766;4.474;2023-06-22T02:55:29;18.40;99.90
13898;DHT22;7019;50.766;4.474;2023-06-22T02:57:57;18.40;99.90
13898;DHT22;7019;50.766;4.474;2023-06-22T03:00:25;18.40;99.90
13898;DHT22;7019;50.766;4.474;2023-06-22T03:02:56;18.40;99.90
13898;DHT22;7019;50.766;4.474;2023-06-22T03:05:24;18.30;99.90
13898;DHT22;7019;50.766;4.474;2023-06-22T03:07:51;18.30;99.90
13898;DHT22;7019;50.766;4.474;2023-06-22T03:10:20;18.20;99.90
13898;DHT22;7019;50.766;4.474;2023-06-22T03:12:47;18.20;99.90
13898;DHT22;7019;50.766;4.474;2023-06-22T03:15:14;18.20;99.90
13898;DHT22;7019;50.766;4.474;2023-06-22T03:17:43;18.30;99.90
13898;DHT22;7019;50.766;4.474;2023-06-22T03:20:10;18.30;99.90
13898;DHT22;7019;50.766;4.474;2023-06-22T03:22:38;18.30;99.90
13898;DHT22;7019;50.766;4.474;2023-06-22T03:25:07;18.40;99.90
13898;DHT22;7019;50.766;4.474;2023-06-22T03:27:40;18.50;99.90
13898;DHT22;7019;50.766;4.474;2023-06-22T03:30:10;18.50;99.90
13898;DHT22;7019;50.766;4.474;2023-06-22T03:32:38;18.60;99.90
13898;DHT22;7019;50.766;4.474;2023-06-22T03:35:06;18.60;99.90
13898;DHT22;7019;50.766;4.474;2023-06-22T03:37:33;18.60;99.90
13898;DHT22;7019;50.766;4.474;2023-06-22T03:40:00;18.60;99.90
13898;DHT22;7019;50.766;4.474;2023-06-22T03:42:28;18.60;99.90
13898;DHT22;7019;50.766;4.474;2023-06-22T03:44:56;18.60;99.90
13898;DHT22;7019;50.766;4.474;2023-06-22T03:47:23;18.60;99.90
13898;DHT22;7019;50.766;4.474;2023-06-22T03:49:50;18.60;99.90
13898;DHT22;7019;50.766;4.474;2023-06-22T03:52:20;18.60;99.90
13898;DHT22;7019;50.766;4.474;2023-06-22T03:54:47;18.60;99.90
13898;DHT22;7019;50.766;4.474;2023-06-22T03:57:14;18.70;99.90
13898;DHT22;7019;50.766;4.474;2023-06-22T03:59:41;18.60;99.90
13898;DHT22;7019;50.766;4.474;2023-06-22T04:02:10;18.60;99.90
13898;DHT22;7019;50.766;4.474;2023-06-22T04:04:37;18.50;99.90
13898;DHT22;7019;50.766;4.474;2023-06-22T04:07:05;18.30;99.90
13898;DHT22;7019;50.766;4.474;2023-06-22T04:09:32;18.10;99.90
13898;DHT22;7019;50.766;4.474;2023-06-22T04:11:59;17.90;99.90
13898;DHT22;7019;50.766;4.474;2023-06-22T04:14:26;17.80;99.90
13898;DHT22;7019;50.766;4.474;2023-06-22T04:16:53;17.80;99.90
13898;DHT22;7019;50.766;4.474;2023-06-22T04:19:21;17.70;99.90
13898;DHT22;7019;50.766;4.474;2023-06-22T04:21:49;17.70;99.90
13898;DHT22;7019;50.766;4.474;2023-06-22T04:24:16;17.70;99.90
13898;DHT22;7019;50.766;4.474;2023-06-22T04:26:43;17.80;99.90
13898;DHT22;7019;50.766;4.474;2023-06-22T04:29:11;17.80;99.90
13898;DHT22;7019;50.766;4.474;2023-06-22T04:31:38;17.90;99.90
13898;DHT22;7019;50.766;4.474;2023-06-22T04:34:06;17.90;99.90
13898;DHT22;7019;50.766;4.474;2023-06-22T04:36:39;17.90;99.90
13898;DHT22;7019;50.766;4.474;2023-06-22T04:39:08;18.00;99.90
13898;DHT22;7019;50.766;4.474;2023-06-22T04:41:36;18.10;99.90
13898;DHT22;7019;50.766;4.474;2023-06-22T04:44:09;18.20;99.90
13898;DHT22;7019;50.766;4.474;2023-06-22T04:46:37;18.30;99.90
13898;DHT22;7019;50.766;4.474;2023-06-22T04:49:08;18.30;99.90
13898;DHT22;7019;50.766;4.474;2023-06-22T04:51:42;18.40;99.90
13898;DHT22;7019;50.766;4.474;2023-06-22T04:54:09;18.30;99.90
13898;DHT22;7019;50.766;4.474;2023-06-22T04:56:36;18.40;99.90
13898;DHT22;7019;50.766;4.474;2023-06-22T04:59:06;18.40;99.90
13898;DHT22;7019;50.766;4.474;2023-06-22T05:01:34;18.50;99.90
13898;DHT22;7019;50.766;4.474;2023-06-22T05:04:01;18.60;99.90
13898;DHT22;7019;50.766;4.474;2023-06-22T05:06:30;18.70;99.90
13898;DHT22;7019;50.766;4.474;2023-06-22T05:08:59;18.60;99.90
13898;DHT22;7019;50.766;4.474;2023-06-22T05:11:26;18.60;99.90
13898;DHT22;7019;50.766;4.474;2023-06-22T05:13:56;18.60;99.90
13898;DHT22;7019;50.766;4.474;2023-06-22T05:16:24;18.60;99.90
13898;DHT22;7019;50.766;4.474;2023-06-22T05:18:54;18.70;99.90
13898;DHT22;7019;50.766;4.474;2023-06-22T05:21:22;18.70;99.90
13898;DHT22;7019;50.766;4.474;2023-06-22T05:23:50;18.70;99.90
13898;DHT22;7019;50.766;4.474;2023-06-22T05:26:19;18.70;99.90
13898;DHT22;7019;50.766;4.474;2023-06-22T05:28:47;18.60;99.90
13898;DHT22;7019;50.766;4.474;2023-06-22T05:31:15;18.60;99.90
13898;DHT22;7019;50.766;4.474;2023-06-22T05:33:44;18.70;99.90
13898;DHT22;7019;50.766;4.474;2023-06-22T05:36:11;18.70;99.90
13898;DHT22;7019;50.766;4.474;2023-06-22T05:38:38;18.70;99.90
13898;DHT22;7019;50.766;4.474;2023-06-22T05:41:06;18.70;99.90
13898;DHT22;7019;50.766;4.474;2023-06-22T05:43:34;18.70;99.90
13898;DHT22;7019;50.766;4.474;2023-06-22T05:46:02;18.80;99.90
13898;DHT22;7019;50.766;4.474;2023-06-22T05:48:29;18.80;99.90
13898;DHT22;7019;50.766;4.474;2023-06-22T05:50:56;18.80;99.90
13898;DHT22;7019;50.766;4.474;2023-06-22T05:53:23;18.90;99.90
13898;DHT22;7019;50.766;4.474;2023-06-22T05:55:50;19.00;99.90
13898;DHT22;7019;50.766;4.474;2023-06-22T05:58:17;19.10;99.90
13898;DHT22;7019;50.766;4.474;2023-06-22T06:00:46;19.00;99.90
13898;DHT22;7019;50.766;4.474;2023-06-22T06:03:13;19.10;99.90
13898;DHT22;7019;50.766;4.474;2023-06-22T06:05:43;19.10;99.90
13898;DHT22;7019;50.766;4.474;2023-06-22T06:08:11;19.20;99.90
13898;DHT22;7019;50.766;4.474;2023-06-22T06:10:38;19.20;99.90
13898;DHT22;7019;50.766;4.474;2023-06-22T06:13:05;19.30;99.90
13898;DHT22;7019;50.766;4.474;2023-06-22T06:15:34;19.30;99.90
13898;DHT22;7019;50.766;4.474;2023-06-22T06:18:03;19.40;99.90
13898;DHT22;7019;50.766;4.474;2023-06-22T06:20:31;19.50;99.90
13898;DHT22;7019;50.766;4.474;2023-06-22T06:22:59;19.60;99.90
13898;DHT22;7019;50.766;4.474;2023-06-22T06:25:26;19.70;99.90
13898;DHT22;7019;50.766;4.474;2023-06-22T06:27:53;19.80;99.90
13898;DHT22;7019;50.766;4.474;2023-06-22T06:30:21;19.80;99.90
13898;DHT22;7019;50.766;4.474;2023-06-22T06:32:49;19.80;99.90
13898;DHT22;7019;50.766;4.474;2023-06-22T06:35:18;19.80;99.90
13898;DHT22;7019;50.766;4.474;2023-06-22T06:37:47;19.80;99.90
13898;DHT22;7019;50.766;4.474;2023-06-22T06:40:16;19.90;99.90
13898;DHT22;7019;50.766;4.474;2023-06-22T06:42:45;19.90;99.90
13898;DHT22;7019;50.766;4.474;2023-06-22T06:45:12;20.00;99.90
13898;DHT22;7019;50.766;4.474;2023-06-22T06:47:40;20.00;99.90
13898;DHT22;7019;50.766;4.474;2023-06-22T06:50:07;20.10;99.90
13898;DHT22;7019;50.766;4.474;2023-06-22T06:52:36;20.20;99.90
13898;DHT22;7019;50.766;4.474;2023-06-22T06:55:04;20.20;99.90
13898;DHT22;7019;50.766;4.474;2023-06-22T06:57:34;20.40;99.90
13898;DHT22;7019;50.766;4.474;2023-06-22T07:00:03;20.70;99.90
13898;DHT22;7019;50.766;4.474;2023-06-22T07:02:35;20.80;99.90
13898;DHT22;7019;50.766;4.474;2023-06-22T07:05:03;21.00;99.90
13898;DHT22;7019;50.766;4.474;2023-06-22T07:07:30;21.10;99.90
13898;DHT22;7019;50.766;4.474;2023-06-22T07:09:58;21.30;99.90
13898;DHT22;7019;50.766;4.474;2023-06-22T07:12:25;21.50;99.90
13898;DHT22;7019;50.766;4.474;2023-06-22T07:14:53;21.60;99.90
13898;DHT22;7019;50.766;4.474;2023-06-22T07:17:20;21.80;99.90
13898;DHT22;7019;50.766;4.474;2023-06-22T07:19:47;21.90;99.90
13898;DHT22;7019;50.766;4.474;2023-06-22T07:22:14;21.80;99.90
13898;DHT22;7019;50.766;4.474;2023-06-22T07:24:41;21.70;99.90
13898;DHT22;7019;50.766;4.474;2023-06-22T07:27:09;21.50;99.90
13898;DHT22;7019;50.766;4.474;2023-06-22T07:29:38;21.40;99.90
13898;DHT22;7019;50.766;4.474;2023-06-22T07:32:08;21.40;99.90
13898;DHT22;7019;50.766;4.474;2023-06-22T07:34:35;21.30;99.90
13898;DHT22;7019;50.766;4.474;2023-06-22T07:37:02;21.30;99.90
13898;DHT22;7019;50.766;4.474;2023-06-22T07:39:30;21.30;99.90
13898;DHT22;7019;50.766;4.474;2023-06-22T07:41:57;21.30;99.90
13898;DHT22;7019;50.766;4.474;2023-06-22T07:44:25;21.20;99.90
13898;DHT22;7019;50.766;4.474;2023-06-22T07:46:52;21.00;99.90
13898;DHT22;7019;50.766;4.474;2023-06-22T07:49:20;21.00;99.90
13898;DHT22;7019;50.766;4.474;2023-06-22T07:51:47;20.90;99.90
13898;DHT22;7019;50.766;4.474;2023-06-22T07:54:14;20.80;99.90
13898;DHT22;7019;50.766;4.474;2023-06-22T07:56:41;20.80;99.90
13898;DHT22;7019;50.766;4.474;2023-06-22T07:59:08;20.60;99.90
13898;DHT22;7019;50.766;4.474;2023-06-22T08:01:37;20.60;99.90
13898;DHT22;7019;50.766;4.474;2023-06-22T08:04:04;20.60;99.90
13898;DHT22;7019;50.766;4.474;2023-06-22T08:06:32;20.50;99.90
13898;DHT22;7019;50.766;4.474;2023-06-22T08:08:59;20.50;99.90
13898;DHT22;7019;50.766;4.474;2023-06-22T08:11:26;20.50;99.90
13898;DHT22;7019;50.766;4.474;2023-06-22T08:13:54;20.50;99.90
13898;DHT22;7019;50.766;4.474;2023-06-22T08:16:23;20.50;99.90
13898;DHT22;7019;50.766;4.474;2023-06-22T08:18:52;20.50;99.90
13898;DHT22;7019;50.766;4.474;2023-06-22T08:21:19;20.50;99.90
13898;DHT22;7019;50.766;4.474;2023-06-22T08:23:46;20.40;99.90
13898;DHT22;7019;50.766;4.474;2023-06-22T08:26:14;20.40;99.90
13898;DHT22;7019;50.766;4.474;2023-06-22T08:28:41;20.40;99.90
13898;DHT22;7019;50.766;4.474;2023-06-22T08:31:08;20.50;99.90
13898;DHT22;7019;50.766;4.474;2023-06-22T08:33:35;20.50;99.90
13898;DHT22;7019;50.766;4.474;2023-06-22T08:36:05;20.60;99.90
13898;DHT22;7019;50.766;4.474;2023-06-22T08:38:34;20.60;99.90
13898;DHT22;7019;50.766;4.474;2023-06-22T08:41:01;20.60;99.90
13898;DHT22;7019;50.766;4.474;2023-06-22T08:43:28;20.60;99.90
13898;DHT22;7019;50.766;4.474;2023-06-22T08:45:55;20.60;99.90
13898;DHT22;7019;50.766;4.474;2023-06-22T08:48:22;20.70;99.90
13898;DHT22;7019;50.766;4.474;2023-06-22T08:50:49;20.80;99.90
13898;DHT22;7019;50.766;4.474;2023-06-22T08:53:18;20.90;99.90
13898;DHT22;7019;50.766;4.474;2023-06-22T08:55:45;20.80;99.90
13898;DHT22;7019;50.766;4.474;2023-06-22T08:58:12;20.80;99.90
13898;DHT22;7019;50.766;4.474;2023-06-22T09:00:39;20.90;99.90
13898;DHT22;7019;50.766;4.474;2023-06-22T09:03:06;20.90;99.90
13898;DHT22;7019;50.766;4.474;2023-06-22T09:05:33;20.90;99.90
13898;DHT22;7019;50.766;4.474;2023-06-22T09:08:00;20.90;99.90
13898;DHT22;7019;50.766;4.474;2023-06-22T09:10:29;20.90;99.90
13898;DHT22;7019;50.766;4.474;2023-06-22T09:12:57;20.90;99.90
13898;DHT22;7019;50.766;4.474;2023-06-22T09:15:24;20.90;99.90
13898;DHT22;7019;50.766;4.474;2023-06-22T09:17:51;20.90;99.90
13898;DHT22;7019;50.766;4.474;2023-06-22T09:20:20;20.80;99.90
13898;DHT22;7019;50.766;4.474;2023-06-22T09:22:47;20.70;99.90
13898;DHT22;7019;50.766;4.474;2023-06-22T09:25:14;20.60;99.90
13898;DHT22;7019;50.766;4.474;2023-06-22T09:27:43;20.40;99.90
13898;DHT22;7019;50.766;4.474;2023-06-22T09:30:11;20.30;99.90
13898;DHT22;7019;50.766;4.474;2023-06-22T09:32:38;20.20;99.90
13898;DHT22;7019;50.766;4.474;2023-06-22T09:35:06;19.90;99.90
13898;DHT22;7019;50.766;4.474;2023-06-22T09:37:34;19.80;99.90
13898;DHT22;7019;50.766;4.474;2023-06-22T09:40:01;19.70;99.90
13898;DHT22;7019;50.766;4.474;2023-06-22T09:42:33;19.60;99.90
13898;DHT22;7019;50.766;4.474;2023-06-22T09:45:03;19.50;99.90
13898;DHT22;7019;50.766;4.474;2023-06-22T09:47:30;19.30;99.90
13898;DHT22;7019;50.766;4.474;2023-06-22T09:49:57;19.20;99.90
13898;DHT22;7019;50.766;4.474;2023-06-22T09:52:25;19.00;99.90
13898;DHT22;7019;50.766;4.474;2023-06-22T09:54:52;19.00;99.90
13898;DHT22;7019;50.766;4.474;2023-06-22T09:57:19;19.00;99.90
13898;DHT22;7019;50.766;4.474;2023-06-22T09:59:46;19.00;99.90
13898;DHT22;7019;50.766;4.474;2023-06-22T10:02:15;19.00;99.90
13898;DHT22;7019;50.766;4.474;2023-06-22T10:04:42;19.10;99.90
13898;DHT22;7019;50.766;4.474;2023-06-22T10:07:09;19.20;99.90
13898;DHT22;7019;50.766;4.474;2023-06-22T10:09:38;19.30;99.90
13898;DHT22;7019;50.766;4.474;2023-06-22T10:12:06;19.30;99.90
13898;DHT22;7019;50.766;4.474;2023-06-22T10:14:33;19.20;99.90
13898;DHT22;7019;50.766;4.474;2023-06-22T10:17:02;19.20;99.90
13898;DHT22;7019;50.766;4.474;2023-06-22T10:19:30;19.10;99.90
13898;DHT22;7019;50.766;4.474;2023-06-22T10:22:03;19.00;99.90
13898;DHT22;7019;50.766;4.474;2023-06-22T10:24:31;18.90;99.90
13898;DHT22;7019;50.766;4.474;2023-06-22T10:27:01;18.80;99.90
13898;DHT22;7019;50.766;4.474;2023-06-22T10:29:28;18.80;99.90
13898;DHT22;7019;50.766;4.474;2023-06-22T10:31:55;18.70;99.90
13898;DHT22;7019;50.766;4.474;2023-06-22T10:34:22;18.70;99.90
13898;DHT22;7019;50.766;4.474;2023-06-22T10:36:50;18.60;99.90
13898;DHT22;7019;50.766;4.474;2023-06-22T10:39:18;18.50;99.90
13898;DHT22;7019;50.766;4.474;2023-06-22T10:41:45;18.50;99.90
13898;DHT22;7019;50.766;4.474;2023-06-22T10:44:12;18.50;99.90
13898;DHT22;7019;50.766;4.474;2023-06-22T10:46:39;18.50;99.90
13898;DHT22;7019;50.766;4.474;2023-06-22T10:49:06;18.40;99.90
13898;DHT22;7019;50.766;4.474;2023-06-22T10:51:33;18.30;99.90
13898;DHT22;7019;50.766;4.474;2023-06-22T10:54:02;18.30;99.90
13898;DHT22;7019;50.766;4.474;2023-06-22T10:56:30;18.30;99.90
13898;DHT22;7019;50.766;4.474;2023-06-22T10:58:59;18.30;99.90
13898;DHT22;7019;50.766;4.474;2023-06-22T11:01:27;18.40;99.90
13898;DHT22;7019;50.766;4.474;2023-06-22T11:03:56;18.50;99.90
13898;DHT22;7019;50.766;4.474;2023-06-22T11:06:23;18.50;99.90
13898;DHT22;7019;50.766;4.474;2023-06-22T11:08:51;18.50;99.90
13898;DHT22;7019;50.766;4.474;2023-06-22T11:11:19;18.60;99.90
13898;DHT22;7019;50.766;4.474;2023-06-22T11:13:46;18.70;99.90
13898;DHT22;7019;50.766;4.474;2023-06-22T11:16:14;18.60;99.90
13898;DHT22;7019;50.766;4.474;2023-06-22T11:18:41;18.60;99.90
13898;DHT22;7019;50.766;4.474;2023-06-22T11:21:08;18.60;99.90
13898;DHT22;7019;50.766;4.474;2023-06-22T11:23:35;18.60;99.90
13898;DHT22;7019;50.766;4.474;2023-06-22T11:26:03;18.60;99.90
13898;DHT22;7019;50.766;4.474;2023-06-22T11:28:31;18.50;99.90
13898;DHT22;7019;50.766;4.474;2023-06-22T11:30:58;18.50;99.90
13898;DHT22;7019;50.766;4.474;2023-06-22T11:33:26;18.50;99.90
13898;DHT22;7019;50.766;4.474;2023-06-22T11:35:53;18.40;99.90
13898;DHT22;7019;50.766;4.474;2023-06-22T11:38:22;18.50;99.90
13898;DHT22;7019;50.766;4.474;2023-06-22T11:40:49;18.50;99.90
13898;DHT22;7019;50.766;4.474;2023-06-22T11:43:16;18.60;99.90
13898;DHT22;7019;50.766;4.474;2023-06-22T11:45:44;18.60;99.90
13898;DHT22;7019;50.766;4.474;2023-06-22T11:48:11;18.70;99.90
13898;DHT22;7019;50.766;4.474;2023-06-22T11:50:38;18.70;99.90
13898;DHT22;7019;50.766;4.474;2023-06-22T11:53:05;18.70;99.90
13898;DHT22;7019;50.766;4.474;2023-06-22T11:55:32;18.70;99.90
13898;DHT22;7019;50.766;4.474;2023-06-22T11:58:00;18.70;99.90
13898;DHT22;7019;50.766;4.474;2023-06-22T12:00:29;18.70;99.90
13898;DHT22;7019;50.766;4.474;2023-06-22T12:02:57;18.60;99.90
13898;DHT22;7019;50.766;4.474;2023-06-22T12:05:24;18.60;99.90
13898;DHT22;7019;50.766;4.474;2023-06-22T12:07:53;18.60;99.90
13898;DHT22;7019;50.766;4.474;2023-06-22T12:10:21;18.60;99.90
13898;DHT22;7019;50.766;4.474;2023-06-22T12:12:48;18.60;99.90
13898;DHT22;7019;50.766;4.474;2023-06-22T12:15:15;18.60;99.90
13898;DHT22;7019;50.766;4.474;2023-06-22T12:17:42;18.50;99.90
13898;DHT22;7019;50.766;4.474;2023-06-22T12:20:11;18.50;99.90
13898;DHT22;7019;50.766;4.474;2023-06-22T12:22:38;18.40;99.90
13898;DHT22;7019;50.766;4.474;2023-06-22T12:25:06;18.40;99.90
13898;DHT22;7019;50.766;4.474;2023-06-22T12:27:34;18.40;99.90
13898;DHT22;7019;50.766;4.474;2023-06-22T12:30:01;18.40;99.90
13898;DHT22;7019;50.766;4.474;2023-06-22T12:32:28;18.30;99.90
13898;DHT22;7019;50.766;4.474;2023-06-22T12:34:56;18.30;99.90
13898;DHT22;7019;50.766;4.474;2023-06-22T12:37:24;18.30;99.90
13898;DHT22;7019;50.766;4.474;2023-06-22T12:39:51;18.30;99.90
13898;DHT22;7019;50.766;4.474;2023-06-22T12:42:18;18.30;99.90
13898;DHT22;7019;50.766;4.474;2023-06-22T12:44:46;18.20;99.90
13898;DHT22;7019;50.766;4.474;2023-06-22T12:47:13;18.20;99.90
13898;DHT22;7019;50.766;4.474;2023-06-22T12:49:40;18.20;99.90
13898;DHT22;7019;50.766;4.474;2023-06-22T12:52:10;18.20;99.90
13898;DHT22;7019;50.766;4.474;2023-06-22T12:54:39;18.10;99.90
13898;DHT22;7019;50.766;4.474;2023-06-22T12:57:06;18.10;99.90
13898;DHT22;7019;50.766;4.474;2023-06-22T12:59:33;18.10;99.90
13898;DHT22;7019;50.766;4.474;2023-06-22T13:02:00;18.10;99.90
13898;DHT22;7019;50.766;4.474;2023-06-22T13:04:27;18.10;99.90
13898;DHT22;7019;50.766;4.474;2023-06-22T13:06:54;18.00;99.90
13898;DHT22;7019;50.766;4.474;2023-06-22T13:09:21;18.00;99.90
13898;DHT22;7019;50.766;4.474;2023-06-22T13:11:50;18.10;99.90
13898;DHT22;7019;50.766;4.474;2023-06-22T13:14:18;18.00;99.90
13898;DHT22;7019;50.766;4.474;2023-06-22T13:16:45;18.00;99.90
13898;DHT22;7019;50.766;4.474;2023-06-22T13:19:12;18.00;99.90
13898;DHT22;7019;50.766;4.474;2023-06-22T13:21:40;18.00;99.90
13898;DHT22;7019;50.766;4.474;2023-06-22T13:24:07;18.00;99.90
13898;DHT22;7019;50.766;4.474;2023-06-22T13:26:34;18.00;99.90
13898;DHT22;7019;50.766;4.474;2023-06-22T13:29:03;18.00;99.90
13898;DHT22;7019;50.766;4.474;2023-06-22T13:31:30;18.00;99.90
13898;DHT22;7019;50.766;4.474;2023-06-22T13:33:57;18.00;99.90
13898;DHT22;7019;50.766;4.474;2023-06-22T13:36:24;18.10;99.90
13898;DHT22;7019;50.766;4.474;2023-06-22T13:38:51;18.10;99.90
13898;DHT22;7019;50.766;4.474;2023-06-22T13:41:18;18.10;99.90
13898;DHT22;7019;50.766;4.474;2023-06-22T13:43:45;18.20;99.90
13898;DHT22;7019;50.766;4.474;2023-06-22T13:46:13;18.20;99.90
13898;DHT22;7019;50.766;4.474;2023-06-22T13:48:40;18.20;99.90
13898;DHT22;7019;50.766;4.474;2023-06-22T13:51:08;18.20;99.90
13898;DHT22;7019;50.766;4.474;2023-06-22T13:53:35;18.20;99.90
13898;DHT22;7019;50.766;4.474;2023-06-22T13:56:03;18.20;99.90
13898;DHT22;7019;50.766;4.474;2023-06-22T13:58:30;18.20;99.90
13898;DHT22;7019;50.766;4.474;2023-06-22T14:00:57;18.20;99.90
13898;DHT22;7019;50.766;4.474;2023-06-22T14:03:25;18.20;99.90
13898;DHT22;7019;50.766;4.474;2023-06-22T14:05:52;18.20;99.90
13898;DHT22;7019;50.766;4.474;2023-06-22T14:08:22;18.20;99.90
13898;DHT22;7019;50.766;4.474;2023-06-22T14:10:50;18.20;99.90
13898;DHT22;7019;50.766;4.474;2023-06-22T14:13:19;18.20;99.90
13898;DHT22;7019;50.766;4.474;2023-06-22T14:15:46;18.10;99.90
13898;DHT22;7019;50.766;4.474;2023-06-22T14:18:15;18.10;99.90
13898;DHT22;7019;50.766;4.474;2023-06-22T14:20:43;18.20;99.90
13898;DHT22;7019;50.766;4.474;2023-06-22T14:23:10;18.20;99.90
13898;DHT22;7019;50.766;4.474;2023-06-22T14:25:37;18.20;99.90
13898;DHT22;7019;50.766;4.474;2023-06-22T14:28:05;18.20;99.90
13898;DHT22;7019;50.766;4.474;2023-06-22T14:30:32;18.20;99.90
13898;DHT22;7019;50.766;4.474;2023-06-22T14:32:59;18.20;99.90
13898;DHT22;7019;50.766;4.474;2023-06-22T14:35:26;18.20;99.90
13898;DHT22;7019;50.766;4.474;2023-06-22T14:37:55;18.30;99.90
13898;DHT22;7019;50.766;4.474;2023-06-22T14:40:22;18.30;99.90
13898;DHT22;7019;50.766;4.474;2023-06-22T14:42:49;18.30;99.90
13898;DHT22;7019;50.766;4.474;2023-06-22T14:45:16;18.30;99.90
13898;DHT22;7019;50.766;4.474;2023-06-22T14:47:43;18.30;99.90
13898;DHT22;7019;50.766;4.474;2023-06-22T14:50:10;18.30;99.90
13898;DHT22;7019;50.766;4.474;2023-06-22T14:52:37;18.30;99.90
13898;DHT22;7019;50.766;4.474;2023-06-22T14:55:06;18.20;99.90
13898;DHT22;7019;50.766;4.474;2023-06-22T14:57:34;18.20;99.90
13898;DHT22;7019;50.766;4.474;2023-06-22T15:00:01;18.20;99.90
13898;DHT22;7019;50.766;4.474;2023-06-22T15:02:28;18.30;99.90
13898;DHT22;7019;50.766;4.474;2023-06-22T15:04:56;18.30;99.90
13898;DHT22;7019;50.766;4.474;2023-06-22T15:07:23;18.30;99.90
13898;DHT22;7019;50.766;4.474;2023-06-22T15:09:50;18.30;99.90
13898;DHT22;7019;50.766;4.474;2023-06-22T15:12:18;18.40;99.90
13898;DHT22;7019;50.766;4.474;2023-06-22T15:14:45;18.40;99.90
13898;DHT22;7019;50.766;4.474;2023-06-22T15:17:12;18.40;99.90
13898;DHT22;7019;50.766;4.474;2023-06-22T15:19:41;18.40;99.90
13898;DHT22;7019;50.766;4.474;2023-06-22T15:22:08;18.40;99.90
13898;DHT22;7019;50.766;4.474;2023-06-22T15:24:35;18.30;99.90
13898;DHT22;7019;50.766;4.474;2023-06-22T15:27:02;18.30;99.90
13898;DHT22;7019;50.766;4.474;2023-06-22T15:29:30;18.40;99.90
13898;DHT22;7019;50.766;4.474;2023-06-22T15:32:00;18.40;99.90
13898;DHT22;7019;50.766;4.474;2023-06-22T15:34:27;18.40;99.90
13898;DHT22;7019;50.766;4.474;2023-06-22T15:36:54;18.40;99.90
13898;DHT22;7019;50.766;4.474;2023-06-22T15:39:21;18.40;99.90
13898;DHT22;7019;50.766;4.474;2023-06-22T15:41:50;18.40;99.90
13898;DHT22;7019;50.766;4.474;2023-06-22T15:44:19;18.40;99.90
13898;DHT22;7019;50.766;4.474;2023-06-22T15:46:48;18.40;99.90
13898;DHT22;7019;50.766;4.474;2023-06-22T15:49:16;18.50;99.90